createdAt,value
2022-07-29T00:02:00.005Z,283.30
2022-07-29T00:04:27.673Z,323.70
2022-07-29T00:06:55.288Z,357.63
2022-07-29T00:09:23.013Z,375.70
2022-07-29T00:11:50.737Z,362.93
2022-07-29T00:14:18.770Z,365.52
2022-07-29T00:16:46.595Z,363.02
2022-07-29T00:19:14.326Z,321.60
2022-07-29T00:21:41.933Z,301.85
2022-07-29T00:24:09.686Z,350.65
2022-07-29T00:26:37.147Z,310.13
2022-07-29T00:29:32.938Z,353.60
2022-07-29T00:31:53.753Z,308.02
2022-07-29T00:34:39.983Z,291.75
2022-07-29T00:37:07.874Z,386.92
2022-07-29T00:39:35.620Z,367.08
2022-07-29T00:42:06.927Z,291.35
2022-07-29T00:44:39.291Z,312.23
2022-07-29T00:47:07.826Z,297.65
2022-07-29T00:49:36.276Z,262.90
2022-07-29T00:52:08.060Z,279.08
2022-07-29T00:54:43.929Z,352.52
2022-07-29T00:57:13.462Z,299.75
2022-07-29T00:59:41.436Z,289.40
2022-07-29T01:02:09.119Z,293.95
2022-07-29T01:04:37.027Z,264.77
2022-07-29T01:07:05.460Z,324.75
2022-07-29T01:09:40.810Z,309.73
2022-07-29T01:12:26.863Z,277.80
2022-07-29T01:14:56.633Z,301.42
2022-07-29T01:17:33.648Z,337.37
2022-07-29T01:20:31.614Z,353.67
2022-07-29T01:23:08.527Z,281.10
2022-07-29T01:26:13.614Z,344.83
2022-07-29T01:29:26.082Z,319.30
2022-07-29T01:32:02.089Z,222.77
2022-07-29T01:34:32.756Z,307.52
2022-07-29T01:37:26.947Z,289.67
2022-07-29T01:39:57.591Z,403.25
2022-07-29T01:42:37.515Z,348.60
2022-07-29T01:45:13.709Z,333.85
2022-07-29T01:47:51.985Z,345.45
2022-07-29T01:50:22.550Z,313.20
2022-07-29T01:52:59.807Z,331.02
2022-07-29T01:55:32.495Z,295.45
2022-07-29T01:58:02.153Z,355.20
2022-07-29T02:00:33.042Z,343.55
2022-07-29T02:03:06.665Z,361.57
2022-07-29T02:05:35.681Z,328.30
2022-07-29T02:08:05.500Z,334.50
2022-07-29T02:10:35.776Z,311.17
2022-07-29T02:13:05.055Z,318.10
2022-07-29T02:15:35.470Z,277.63
2022-07-29T02:18:08.969Z,333.98
2022-07-29T02:20:39.047Z,350.17
2022-07-29T02:23:08.137Z,288.55
2022-07-29T02:25:38.060Z,318.30
2022-07-29T02:28:08.810Z,341.05
2022-07-29T02:30:43.068Z,319.02
2022-07-29T02:33:14.740Z,312.27
2022-07-29T02:35:44.234Z,329.13
2022-07-29T02:38:34.096Z,334.37
2022-07-29T02:41:14.797Z,300.17
2022-07-29T02:43:46.246Z,344.33
2022-07-29T02:46:29.253Z,301.65
2022-07-29T02:49:17.295Z,327.65
2022-07-29T02:51:48.437Z,312.10
2022-07-29T02:54:32.859Z,227.10
2022-07-29T02:57:08.027Z,306.00
2022-07-29T02:59:39.093Z,316.63
2022-07-29T03:02:08.344Z,323.85
2022-07-29T03:04:37.237Z,338.17
2022-07-29T03:07:06.248Z,279.50
2022-07-29T03:09:34.547Z,316.42
2022-07-29T03:12:05.261Z,312.70
2022-07-29T03:14:33.246Z,287.77
2022-07-29T03:17:01.286Z,329.67
2022-07-29T03:19:29.479Z,329.40
2022-07-29T03:21:58.816Z,340.40
2022-07-29T03:24:31.733Z,269.38
2022-07-29T03:26:59.911Z,287.53
2022-07-29T03:29:33.722Z,278.02
2022-07-29T03:32:07.309Z,337.17
2022-07-29T03:34:38.302Z,378.55
2022-07-29T03:37:07.403Z,308.80
2022-07-29T03:39:40.694Z,282.65
2022-07-29T03:42:12.246Z,309.75
2022-07-29T03:44:43.244Z,332.08
2022-07-29T03:47:12.210Z,314.88
2022-07-29T03:49:41.602Z,243.93
2022-07-29T03:52:10.148Z,258.42
2022-07-29T03:54:37.813Z,338.27
2022-07-29T03:57:08.286Z,288.85
2022-07-29T03:59:36.546Z,270.05
2022-07-29T04:02:05.894Z,288.47
2022-07-29T04:04:36.684Z,278.13
2022-07-29T04:07:05.015Z,267.02
2022-07-29T04:09:34.063Z,290.02
2022-07-29T04:12:04.349Z,231.90
2022-07-29T04:14:35.933Z,207.55
2022-07-29T04:17:05.152Z,265.40
2022-07-29T04:19:33.882Z,277.20
2022-07-29T04:22:02.215Z,239.43
2022-07-29T04:24:30.028Z,231.32
2022-07-29T04:26:57.736Z,311.77
2022-07-29T04:29:25.318Z,247.52
2022-07-29T04:31:53.010Z,276.98
2022-07-29T04:34:20.898Z,250.73
2022-07-29T04:36:48.732Z,241.25
2022-07-29T04:39:22.195Z,213.90
2022-07-29T04:41:52.403Z,251.97
2022-07-29T04:44:20.136Z,241.52
2022-07-29T04:46:47.843Z,261.50
2022-07-29T04:49:15.577Z,205.40
2022-07-29T04:51:44.455Z,238.73
2022-07-29T04:54:12.007Z,221.67
2022-07-29T04:56:39.561Z,214.63
2022-07-29T04:59:07.031Z,235.77
2022-07-29T05:01:34.990Z,243.35
2022-07-29T05:04:02.620Z,237.35
2022-07-29T05:06:31.131Z,240.13
2022-07-29T05:08:58.737Z,248.90
2022-07-29T05:11:30.241Z,247.88
2022-07-29T05:13:58.162Z,264.13
2022-07-29T05:16:25.797Z,210.50
2022-07-29T05:18:53.504Z,277.80
2022-07-29T05:21:21.048Z,245.43
2022-07-29T05:23:48.622Z,251.23
2022-07-29T05:26:16.114Z,209.32
2022-07-29T05:28:43.731Z,196.65
2022-07-29T05:31:11.276Z,217.63
2022-07-29T05:33:38.906Z,204.77
2022-07-29T05:36:09.618Z,162.95
2022-07-29T05:38:37.648Z,178.40
2022-07-29T05:41:06.405Z,204.35
2022-07-29T05:43:34.147Z,230.52
2022-07-29T05:46:01.735Z,219.52
2022-07-29T05:48:29.717Z,204.13
2022-07-29T05:50:57.373Z,169.27
2022-07-29T05:53:25.103Z,211.63
2022-07-29T05:55:53.401Z,203.60
2022-07-29T05:58:21.597Z,159.10
2022-07-29T06:00:49.080Z,183.52
2022-07-29T06:03:17.026Z,163.77
2022-07-29T06:05:44.502Z,198.93
2022-07-29T06:08:12.199Z,232.63
2022-07-29T06:10:39.889Z,193.27
2022-07-29T06:13:07.502Z,198.38
2022-07-29T06:15:35.328Z,177.10
2022-07-29T06:18:03.460Z,194.23
2022-07-29T06:20:32.659Z,150.63
2022-07-29T06:23:01.588Z,173.00
2022-07-29T06:25:33.492Z,168.82
2022-07-29T06:28:01.004Z,162.25
2022-07-29T06:30:29.894Z,153.75
2022-07-29T06:32:57.545Z,157.25
2022-07-29T06:35:39.385Z,227.70
2022-07-29T06:38:30.034Z,153.23
2022-07-29T06:41:04.174Z,154.98
2022-07-29T06:43:35.186Z,166.55
2022-07-29T06:46:08.228Z,153.85
2022-07-29T06:48:39.879Z,156.00
2022-07-29T06:51:07.861Z,131.13
2022-07-29T06:53:36.061Z,169.98
2022-07-29T06:56:05.710Z,153.10
2022-07-29T06:58:33.357Z,205.43
2022-07-29T07:01:04.489Z,160.98
2022-07-29T07:03:32.243Z,140.17
2022-07-29T07:06:00.252Z,144.30
2022-07-29T07:08:28.029Z,147.05
2022-07-29T07:10:56.375Z,127.55
2022-07-29T07:13:24.811Z,141.85
2022-07-29T07:15:53.128Z,175.77
2022-07-29T07:18:20.903Z,186.38
2022-07-29T07:20:48.814Z,118.68
2022-07-29T07:23:16.440Z,160.87
2022-07-29T07:25:44.100Z,196.35
2022-07-29T07:28:11.802Z,140.57
2022-07-29T07:30:39.411Z,114.45
2022-07-29T07:33:07.077Z,129.20
2022-07-29T07:35:34.811Z,131.85
2022-07-29T07:38:02.604Z,106.13
2022-07-29T07:40:30.114Z,145.07
2022-07-29T07:42:58.149Z,167.18
2022-07-29T07:45:25.888Z,172.15
2022-07-29T07:47:53.529Z,151.18
2022-07-29T07:50:21.117Z,128.25
2022-07-29T07:52:54.492Z,85.70
2022-07-29T07:55:22.476Z,136.93
2022-07-29T07:57:50.171Z,129.27
2022-07-29T08:00:18.906Z,151.35
2022-07-29T08:02:51.399Z,90.93
2022-07-29T08:05:19.609Z,106.83
2022-07-29T08:07:48.492Z,103.15
2022-07-29T08:10:37.799Z,127.05
2022-07-29T08:13:10.072Z,90.03
2022-07-29T08:15:37.718Z,71.50
2022-07-29T08:18:08.721Z,101.72
2022-07-29T08:20:39.482Z,96.38
2022-07-29T08:23:09.865Z,96.50
2022-07-29T08:25:40.115Z,69.60
2022-07-29T08:28:08.209Z,101.90
2022-07-29T08:30:36.191Z,104.10
2022-07-29T08:33:04.604Z,112.35
2022-07-29T08:35:35.181Z,84.07
2022-07-29T08:38:04.734Z,69.70
2022-07-29T08:40:33.727Z,118.43
2022-07-29T08:43:09.749Z,100.10
2022-07-29T08:45:50.115Z,78.35
2022-07-29T08:48:22.434Z,70.75
2022-07-29T08:50:54.568Z,68.75
2022-07-29T08:53:24.636Z,69.00
2022-07-29T08:55:56.802Z,56.55
2022-07-29T08:58:27.741Z,84.97
2022-07-29T09:00:58.343Z,58.28
2022-07-29T09:03:34.592Z,57.50
2022-07-29T09:06:04.177Z,69.53
2022-07-29T09:08:38.651Z,94.65
2022-07-29T09:11:10.054Z,98.43
2022-07-29T09:13:38.978Z,68.75
2022-07-29T09:16:09.585Z,114.97
2022-07-29T09:18:48.685Z,65.47
2022-07-29T09:21:38.595Z,91.53
2022-07-29T09:24:18.393Z,99.20
2022-07-29T09:26:49.701Z,78.00
2022-07-29T09:29:21.556Z,99.63
2022-07-29T09:31:56.621Z,84.60
2022-07-29T09:34:34.313Z,83.88
2022-07-29T09:37:08.748Z,80.80
2022-07-29T09:39:49.810Z,72.15
2022-07-29T09:42:34.705Z,102.57
2022-07-29T09:45:05.278Z,69.40
2022-07-29T09:47:55.315Z,88.83
2022-07-29T09:50:37.447Z,119.37
2022-07-29T09:53:05.288Z,83.27
2022-07-29T09:55:33.176Z,87.30
2022-07-29T09:58:29.427Z,71.65
2022-07-29T10:00:59.510Z,102.07
2022-07-29T10:03:27.535Z,86.45
2022-07-29T10:06:09.683Z,97.57
2022-07-29T10:08:38.182Z,97.93
2022-07-29T10:11:19.703Z,60.03
2022-07-29T10:13:49.257Z,63.08
2022-07-29T10:16:18.211Z,70.45
2022-07-29T10:18:48.145Z,52.45
2022-07-29T10:21:34.980Z,80.50
2022-07-29T10:24:03.762Z,82.68
2022-07-29T10:26:33.283Z,85.43
2022-07-29T10:29:03.359Z,60.28
2022-07-29T10:31:53.715Z,78.55
2022-07-29T10:35:05.690Z,111.05
2022-07-29T10:37:55.080Z,92.15
2022-07-29T10:41:08.641Z,101.72
2022-07-29T10:43:42.346Z,67.88
2022-07-29T10:46:13.060Z,111.32
2022-07-29T10:49:18.930Z,61.70
2022-07-29T10:52:13.509Z,91.95
2022-07-29T10:54:47.952Z,112.53
2022-07-29T10:57:16.256Z,60.55
2022-07-29T10:59:50.403Z,72.25
2022-07-29T11:02:46.525Z,106.75
2022-07-29T11:05:20.418Z,73.93
2022-07-29T11:08:21.064Z,94.60
2022-07-29T11:11:15.871Z,82.93
2022-07-29T11:13:46.562Z,120.97
2022-07-29T11:16:16.832Z,79.03
2022-07-29T11:19:16.356Z,55.10
2022-07-29T11:21:58.223Z,54.42
2022-07-29T11:24:32.391Z,65.88
2022-07-29T11:27:23.661Z,103.97
2022-07-29T11:29:58.731Z,105.47
2022-07-29T11:32:41.722Z,72.50
2022-07-29T11:35:17.573Z,112.85
2022-07-29T11:38:05.892Z,84.17
2022-07-29T11:40:33.633Z,87.03
2022-07-29T11:43:01.102Z,91.53
2022-07-29T11:45:47.866Z,113.45
2022-07-29T11:48:31.562Z,94.68
2022-07-29T11:51:01.386Z,73.00
2022-07-29T11:53:32.581Z,61.45
2022-07-29T11:56:02.809Z,75.55
2022-07-29T11:58:32.191Z,125.63
2022-07-29T12:01:04.206Z,61.47
2022-07-29T12:03:36.002Z,136.38
2022-07-29T12:07:03.607Z,116.03
2022-07-29T12:09:14.717Z,65.03
2022-07-29T12:11:44.988Z,115.35
2022-07-29T12:14:32.702Z,98.97
2022-07-29T12:17:02.192Z,129.68
2022-07-29T12:19:29.669Z,84.43
2022-07-29T12:22:02.180Z,87.38
2022-07-29T12:24:44.896Z,133.52
2022-07-29T12:27:18.267Z,92.80
2022-07-29T12:29:48.047Z,96.68
2022-07-29T12:32:19.866Z,92.88
2022-07-29T12:34:48.185Z,106.97
2022-07-29T12:37:16.532Z,86.32
2022-07-29T12:39:44.986Z,60.22
2022-07-29T12:42:18.727Z,79.75
2022-07-29T12:44:51.482Z,115.22
2022-07-29T12:47:20.487Z,93.93
2022-07-29T12:49:48.847Z,74.65
2022-07-29T12:52:34.728Z,117.40
2022-07-29T12:55:02.794Z,101.97
2022-07-29T12:57:30.632Z,89.40
2022-07-29T13:00:11.842Z,90.33
2022-07-29T13:02:40.981Z,85.78
2022-07-29T13:05:13.956Z,73.55
2022-07-29T13:07:55.291Z,103.88
2022-07-29T13:10:26.197Z,70.30
2022-07-29T13:13:11.474Z,90.75
2022-07-29T13:15:41.345Z,105.20
2022-07-29T13:18:33.954Z,110.60
2022-07-29T13:21:16.472Z,57.80
2022-07-29T13:23:44.463Z,100.32
2022-07-29T13:26:17.425Z,62.85
2022-07-29T13:28:45.161Z,120.05
2022-07-29T13:31:13.081Z,128.35
2022-07-29T13:33:40.660Z,102.30
2022-07-29T13:36:08.555Z,72.00
2022-07-29T13:38:36.092Z,144.00
2022-07-29T13:41:03.871Z,129.55
2022-07-29T13:43:31.411Z,105.18
2022-07-29T13:45:58.978Z,76.97
2022-07-29T13:48:26.698Z,110.78
2022-07-29T13:50:54.195Z,87.70
2022-07-29T13:53:26.984Z,99.60
2022-07-29T13:55:55.256Z,77.63
2022-07-29T13:58:23.014Z,117.22
2022-07-29T14:00:51.072Z,111.50
2022-07-29T14:03:18.657Z,83.05
2022-07-29T14:05:46.180Z,165.17
2022-07-29T14:08:13.734Z,128.47
2022-07-29T14:10:41.321Z,111.80
2022-07-29T14:13:25.406Z,131.65
2022-07-29T14:15:54.226Z,134.88
2022-07-29T14:18:22.647Z,120.97
2022-07-29T14:20:50.838Z,95.63
2022-07-29T14:23:20.159Z,118.65
2022-07-29T14:25:49.444Z,146.73
2022-07-29T14:28:17.302Z,115.70
2022-07-29T14:30:45.035Z,108.40
2022-07-29T14:33:12.777Z,121.28
2022-07-29T14:35:40.698Z,116.10
2022-07-29T14:38:08.134Z,108.18
2022-07-29T14:40:35.844Z,89.35
2022-07-29T14:43:04.096Z,133.85
2022-07-29T14:45:33.207Z,93.43
2022-07-29T14:48:01.578Z,101.65
2022-07-29T14:50:31.771Z,76.68
2022-07-29T14:53:01.131Z,99.32
2022-07-29T14:55:29.244Z,126.43
2022-07-29T14:58:07.709Z,111.78
2022-07-29T15:00:39.159Z,102.38
2022-07-29T15:03:11.578Z,63.53
2022-07-29T15:05:40.309Z,150.98
2022-07-29T15:08:09.316Z,84.03
2022-07-29T15:10:37.312Z,140.98
2022-07-29T15:13:04.838Z,140.45
2022-07-29T15:15:32.336Z,119.82
2022-07-29T15:17:59.819Z,72.63
2022-07-29T15:20:28.348Z,119.75
2022-07-29T15:22:57.344Z,94.07
2022-07-29T15:25:25.945Z,114.30
2022-07-29T15:28:00.972Z,95.50
2022-07-29T15:30:33.203Z,128.32
2022-07-29T15:33:04.243Z,141.93
2022-07-29T15:35:32.128Z,126.40
2022-07-29T15:37:59.846Z,127.43
2022-07-29T15:40:27.646Z,75.30
2022-07-29T15:42:55.468Z,95.78
2022-07-29T15:45:23.173Z,157.35
2022-07-29T15:47:50.611Z,133.00
2022-07-29T15:50:18.983Z,119.85
2022-07-29T15:52:47.172Z,103.70
2022-07-29T15:55:15.961Z,221.63
2022-07-29T15:57:43.777Z,158.02
2022-07-29T16:00:12.061Z,110.67
2022-07-29T16:02:39.876Z,133.10
2022-07-29T16:05:09.414Z,176.05
2022-07-29T16:07:37.974Z,126.68
2022-07-29T16:10:08.086Z,139.52
2022-07-29T16:12:35.739Z,155.32
2022-07-29T16:15:09.029Z,142.52
2022-07-29T16:17:38.257Z,176.38
2022-07-29T16:20:06.838Z,135.18
2022-07-29T16:22:34.493Z,130.82
2022-07-29T16:25:01.959Z,151.53
2022-07-29T16:27:35.455Z,127.70
2022-07-29T16:30:09.919Z,114.80
2022-07-29T16:32:37.912Z,157.73
2022-07-29T16:35:06.039Z,120.15
2022-07-29T16:37:37.477Z,112.37
2022-07-29T16:40:07.164Z,162.13
2022-07-29T16:42:50.720Z,122.35
2022-07-29T16:45:21.442Z,123.90
2022-07-29T16:47:49.496Z,171.93
2022-07-29T16:50:17.772Z,124.20
2022-07-29T16:52:45.322Z,145.05
2022-07-29T16:55:13.044Z,158.67
2022-07-29T16:57:42.068Z,172.80
2022-07-29T17:00:10.499Z,135.90
2022-07-29T17:02:38.977Z,142.33
2022-07-29T17:05:08.150Z,119.80
2022-07-29T17:07:35.707Z,102.60
2022-07-29T17:10:05.390Z,142.15
2022-07-29T17:12:35.198Z,137.55
2022-07-29T17:15:06.474Z,156.70
2022-07-29T17:17:39.525Z,143.30
2022-07-29T17:20:22.202Z,160.95
2022-07-29T17:22:49.677Z,115.20
2022-07-29T17:25:21.093Z,167.35
2022-07-29T17:27:50.931Z,172.07
2022-07-29T17:30:18.690Z,133.13
2022-07-29T17:32:46.391Z,136.32
2022-07-29T17:35:32.906Z,208.95
2022-07-29T17:38:00.509Z,188.57
2022-07-29T17:40:28.121Z,170.25
2022-07-29T17:42:55.815Z,152.88
2022-07-29T17:45:23.236Z,200.77
2022-07-29T17:47:51.301Z,163.52
2022-07-29T17:50:18.861Z,139.73
2022-07-29T17:52:46.832Z,140.20
2022-07-29T17:55:14.499Z,192.43
2022-07-29T17:57:42.717Z,120.70
2022-07-29T18:00:10.519Z,156.70
2022-07-29T18:02:38.446Z,186.48
2022-07-29T18:05:06.912Z,172.18
2022-07-29T18:07:34.470Z,140.07
2022-07-29T18:10:02.663Z,134.10
2022-07-29T18:12:31.233Z,194.48
2022-07-29T18:14:58.915Z,182.43
2022-07-29T18:17:49.433Z,183.45
2022-07-29T18:20:17.482Z,174.07
2022-07-29T18:22:46.367Z,175.80
2022-07-29T18:25:14.234Z,162.00
2022-07-29T18:27:41.903Z,234.25
2022-07-29T18:30:12.252Z,191.32
2022-07-29T18:32:40.483Z,148.75
2022-07-29T18:35:08.751Z,189.90
2022-07-29T18:38:00.701Z,166.18
2022-07-29T18:40:26.282Z,162.25
2022-07-29T18:42:58.281Z,158.27
2022-07-29T18:45:28.269Z,204.88
2022-07-29T18:47:57.852Z,188.77
2022-07-29T18:50:29.370Z,195.73
2022-07-29T18:53:01.501Z,140.63
2022-07-29T18:55:29.131Z,131.80
2022-07-29T18:57:57.522Z,197.93
2022-07-29T19:00:26.545Z,165.48
2022-07-29T19:02:54.425Z,171.57
2022-07-29T19:05:23.379Z,137.98
2022-07-29T19:07:51.246Z,136.13
2022-07-29T19:10:20.408Z,246.65
2022-07-29T19:12:48.132Z,208.60
2022-07-29T19:15:19.951Z,158.63
2022-07-29T19:17:49.025Z,155.70
2022-07-29T19:20:16.842Z,169.68
2022-07-29T19:22:44.822Z,170.13
2022-07-29T19:25:12.607Z,178.80
2022-07-29T19:27:46.051Z,207.20
2022-07-29T19:30:16.755Z,201.18
2022-07-29T19:32:44.252Z,147.27
2022-07-29T19:35:30.536Z,221.57
2022-07-29T19:38:00.875Z,193.65
2022-07-29T19:40:33.729Z,140.18
2022-07-29T19:43:03.693Z,138.02
2022-07-29T19:45:55.554Z,239.20
2022-07-29T19:48:24.537Z,169.82
2022-07-29T19:50:52.020Z,189.90
2022-07-29T19:53:19.621Z,188.73
2022-07-29T19:55:47.182Z,215.35
2022-07-29T19:58:14.994Z,157.20
2022-07-29T20:00:42.991Z,202.05
2022-07-29T20:03:11.363Z,185.38
2022-07-29T20:05:38.973Z,197.30
2022-07-29T20:08:06.648Z,175.32
2022-07-29T20:10:34.397Z,231.35
2022-07-29T20:13:02.097Z,189.70
2022-07-29T20:15:29.758Z,178.75
2022-07-29T20:17:57.562Z,184.18
2022-07-29T20:20:25.676Z,223.88
2022-07-29T20:22:53.937Z,171.95
2022-07-29T20:25:21.832Z,187.35
2022-07-29T20:27:52.571Z,193.88
2022-07-29T20:30:21.971Z,184.68
2022-07-29T20:32:50.156Z,199.68
2022-07-29T20:35:19.862Z,228.07
2022-07-29T20:37:56.168Z,194.77
2022-07-29T20:40:25.923Z,193.52
2022-07-29T20:42:55.279Z,209.80
2022-07-29T20:45:23.903Z,256.48
2022-07-29T20:47:52.412Z,202.60
2022-07-29T20:50:23.744Z,202.13
2022-07-29T20:52:52.799Z,165.73
2022-07-29T20:55:21.397Z,184.63
2022-07-29T20:57:49.066Z,217.07
2022-07-29T21:00:16.751Z,181.93
2022-07-29T21:02:44.472Z,201.43
2022-07-29T21:05:12.185Z,196.05
2022-07-29T21:07:40.026Z,172.32
2022-07-29T21:10:07.909Z,212.05
2022-07-29T21:12:35.533Z,190.67
2022-07-29T21:15:08.839Z,219.35
2022-07-29T21:17:39.007Z,205.93
2022-07-29T21:20:08.817Z,234.75
2022-07-29T21:22:37.868Z,173.07
2022-07-29T21:25:06.736Z,200.85
2022-07-29T21:27:52.681Z,235.40
2022-07-29T21:30:20.837Z,214.57
2022-07-29T21:32:48.322Z,215.65
2022-07-29T21:35:35.833Z,213.77
2022-07-29T21:38:03.629Z,224.00
2022-07-29T21:40:31.218Z,209.68
2022-07-29T21:42:58.824Z,252.63
2022-07-29T21:45:27.121Z,213.43
2022-07-29T21:47:54.760Z,218.18
2022-07-29T21:50:22.334Z,179.52
2022-07-29T21:52:49.856Z,187.07
2022-07-29T21:55:19.277Z,176.85
2022-07-29T21:57:46.999Z,194.82
2022-07-29T22:00:17.598Z,203.10
2022-07-29T22:02:45.767Z,218.25
2022-07-29T22:05:14.399Z,175.60
2022-07-29T22:07:56.496Z,160.20
2022-07-29T22:10:30.034Z,166.02
2022-07-29T22:12:59.446Z,190.15
2022-07-29T22:15:28.137Z,223.93
2022-07-29T22:17:56.033Z,230.95
2022-07-29T22:20:24.188Z,251.73
2022-07-29T22:22:51.890Z,235.95
2022-07-29T22:25:19.643Z,192.27
2022-07-29T22:27:47.309Z,247.65
2022-07-29T22:30:15.543Z,209.60
2022-07-29T22:32:43.713Z,205.00
2022-07-29T22:35:11.626Z,228.20
2022-07-29T22:37:39.447Z,218.68
2022-07-29T22:40:07.803Z,226.37
2022-07-29T22:42:35.783Z,238.23
2022-07-29T22:45:04.434Z,237.73
2022-07-29T22:47:46.703Z,187.85
2022-07-29T22:50:17.460Z,230.32
2022-07-29T22:52:45.868Z,221.52
2022-07-29T22:55:14.333Z,203.48
2022-07-29T22:57:42.271Z,224.50
2022-07-29T23:00:10.849Z,221.45
2022-07-29T23:02:38.438Z,225.57
2022-07-29T23:05:06.756Z,243.57
2022-07-29T23:07:34.276Z,239.98
2022-07-29T23:10:02.202Z,187.63
2022-07-29T23:12:29.705Z,222.30
2022-07-29T23:14:57.358Z,211.20
2022-07-29T23:17:24.818Z,229.57
2022-07-29T23:19:52.526Z,225.57
2022-07-29T23:22:19.987Z,271.27
2022-07-29T23:24:48.218Z,227.20
2022-07-29T23:27:15.886Z,237.48
2022-07-29T23:29:43.638Z,211.68
2022-07-29T23:32:11.105Z,225.13
2022-07-29T23:34:38.720Z,249.60
2022-07-29T23:37:06.454Z,219.18
2022-07-29T23:39:36.845Z,224.82
2022-07-29T23:42:05.079Z,208.20
2022-07-29T23:44:32.899Z,176.00
2022-07-29T23:47:00.637Z,197.95
2022-07-29T23:49:28.443Z,221.20
2022-07-29T23:51:56.036Z,250.65
2022-07-29T23:54:25.991Z,182.50
2022-07-29T23:56:53.524Z,196.70
2022-07-29T23:59:21.096Z,207.32
